createdAt,value
2018-07-31T00:04:37.291Z,25.40
2018-07-31T00:07:05.658Z,25.40
2018-07-31T00:09:34.030Z,25.40
2018-07-31T00:12:02.470Z,25.40
2018-07-31T00:14:30.832Z,25.30
2018-07-31T00:19:27.271Z,25.20
2018-07-31T00:21:55.667Z,25.20
2018-07-31T00:26:52.130Z,25.10
2018-07-31T00:29:20.459Z,25.10
2018-07-31T00:31:48.836Z,25.10
2018-07-31T00:34:17.200Z,25.00
2018-07-31T00:36:45.560Z,24.90
2018-07-31T00:39:13.912Z,24.90
2018-07-31T00:44:10.897Z,24.80
2018-07-31T00:46:39.256Z,24.80
2018-07-31T00:51:35.734Z,24.60
2018-07-31T00:54:04.150Z,24.60
2018-07-31T00:56:32.555Z,24.60
2018-07-31T00:59:00.901Z,24.50
2018-07-31T01:01:29.255Z,24.50
2018-07-31T01:03:57.598Z,24.40
2018-07-31T01:08:55.048Z,24.30
2018-07-31T01:11:23.596Z,24.30
2018-07-31T01:13:51.972Z,24.20
2018-07-31T01:16:20.360Z,24.20
2018-07-31T01:18:48.700Z,24.10
2018-07-31T01:23:45.215Z,24.10
2018-07-31T01:26:13.536Z,24.00
2018-07-31T01:38:34.171Z,23.80
2018-07-31T01:41:02.509Z,23.80
2018-07-31T01:43:30.864Z,23.70
2018-07-31T01:48:27.297Z,23.70
2018-07-31T01:50:55.610Z,23.60
2018-07-31T01:53:23.950Z,23.60
2018-07-31T01:55:52.265Z,23.60
2018-07-31T01:58:20.607Z,23.60
2018-07-31T02:00:48.938Z,23.50
2018-07-31T02:03:17.296Z,23.50
2018-07-31T02:05:45.616Z,23.50
2018-07-31T02:08:13.959Z,23.40
2018-07-31T02:10:42.276Z,23.40
2018-07-31T02:13:10.647Z,23.30
2018-07-31T02:15:38.960Z,23.30
2018-07-31T02:18:07.320Z,23.30
2018-07-31T02:20:35.670Z,23.30
2018-07-31T02:23:04.027Z,23.20
2018-07-31T02:30:28.520Z,23.10
2018-07-31T02:32:56.906Z,23.10
2018-07-31T02:35:25.228Z,23.00
2018-07-31T02:37:53.567Z,23.00
2018-07-31T02:40:21.922Z,23.00
2018-07-31T02:45:18.338Z,22.90
2018-07-31T02:47:46.656Z,22.90
2018-07-31T02:50:15.016Z,22.80
2018-07-31T02:52:43.337Z,22.80
2018-07-31T02:55:12.115Z,22.80
2018-07-31T02:57:41.220Z,22.70
2018-07-31T03:00:10.547Z,22.70
2018-07-31T03:02:38.892Z,22.70
2018-07-31T03:05:09.052Z,22.60
2018-07-31T03:07:37.372Z,22.50
2018-07-31T03:10:06.938Z,22.50
2018-07-31T03:12:35.244Z,22.50
2018-07-31T03:15:03.641Z,22.50
2018-07-31T03:17:31.982Z,22.50
2018-07-31T03:20:00.325Z,22.50
2018-07-31T03:22:28.681Z,22.50
2018-07-31T03:24:57.035Z,22.40
2018-07-31T03:27:25.353Z,22.40
2018-07-31T03:29:53.716Z,22.40
2018-07-31T03:32:22.058Z,22.30
2018-07-31T03:34:50.475Z,22.30
2018-07-31T03:37:18.803Z,22.30
2018-07-31T03:39:47.176Z,22.20
2018-07-31T03:44:43.600Z,22.10
2018-07-31T03:47:11.932Z,22.10
2018-07-31T03:49:40.290Z,22.10
2018-07-31T03:54:36.730Z,22.10
2018-07-31T03:57:05.188Z,22.10
2018-07-31T03:59:33.572Z,22.00
2018-07-31T04:02:01.972Z,22.00
2018-07-31T04:06:58.423Z,22.00
2018-07-31T04:11:54.843Z,22.00
2018-07-31T04:14:23.207Z,22.00
2018-07-31T04:16:51.568Z,21.90
2018-07-31T04:19:19.936Z,21.90
2018-07-31T04:21:48.336Z,21.90
2018-07-31T04:24:16.859Z,21.90
2018-07-31T04:26:45.243Z,21.80
2018-07-31T04:29:13.560Z,21.80
2018-07-31T04:31:41.907Z,21.90
2018-07-31T04:34:10.234Z,21.90
2018-07-31T04:36:38.592Z,22.00
2018-07-31T04:39:09.000Z,22.00
2018-07-31T04:46:33.751Z,22.10
2018-07-31T04:49:02.096Z,22.10
2018-07-31T04:51:30.509Z,22.10
2018-07-31T04:53:59.288Z,22.10
2018-07-31T04:58:56.883Z,22.20
2018-07-31T05:01:26.017Z,22.20
2018-07-31T05:03:54.511Z,22.20
2018-07-31T05:06:23.004Z,22.30
2018-07-31T05:08:51.413Z,22.40
2018-07-31T05:11:19.906Z,22.40
2018-07-31T05:13:48.492Z,22.40
2018-07-31T05:16:16.894Z,22.50
2018-07-31T05:18:47.174Z,22.50
2018-07-31T05:21:15.709Z,22.50
2018-07-31T05:23:44.103Z,22.60
2018-07-31T05:26:12.668Z,22.70
2018-07-31T05:28:41.157Z,22.70
2018-07-31T05:31:09.976Z,22.80
2018-07-31T05:33:38.877Z,22.90
2018-07-31T05:36:10.345Z,23.00
2018-07-31T05:38:38.777Z,23.10
2018-07-31T05:41:07.255Z,23.20
2018-07-31T05:43:35.570Z,23.30
2018-07-31T05:46:03.962Z,23.30
2018-07-31T05:48:32.261Z,23.40
2018-07-31T05:51:00.608Z,23.50
2018-07-31T05:53:28.928Z,23.50
2018-07-31T05:55:57.282Z,23.50
2018-07-31T06:00:53.658Z,23.70
2018-07-31T06:03:22.003Z,23.70
2018-07-31T06:05:50.332Z,23.70
2018-07-31T06:08:19.503Z,23.80
2018-07-31T06:10:47.825Z,23.90
2018-07-31T06:13:16.185Z,23.90
2018-07-31T06:15:44.715Z,23.90
2018-07-31T06:18:13.080Z,24.00
2018-07-31T06:20:41.424Z,24.00
2018-07-31T06:23:09.759Z,24.10
2018-07-31T06:25:38.138Z,24.20
2018-07-31T06:28:06.483Z,24.30
2018-07-31T06:30:34.801Z,24.30
2018-07-31T06:35:31.203Z,24.40
2018-07-31T06:37:59.575Z,24.40
2018-07-31T06:40:27.899Z,24.40
2018-07-31T06:42:56.259Z,24.50
2018-07-31T06:45:24.576Z,24.60
2018-07-31T06:47:52.963Z,24.70
2018-07-31T06:52:49.348Z,24.90
2018-07-31T06:55:17.668Z,25.10
2018-07-31T06:57:46.045Z,25.10
2018-07-31T07:00:14.367Z,25.20
2018-07-31T07:02:42.707Z,25.30
2018-07-31T07:05:11.040Z,25.40
2018-07-31T07:07:39.395Z,25.50
2018-07-31T07:10:07.823Z,25.50
2018-07-31T07:12:36.185Z,25.70
2018-07-31T07:15:04.659Z,25.70
2018-07-31T07:17:33.046Z,25.90
2018-07-31T07:20:01.372Z,26.00
2018-07-31T07:22:29.785Z,26.10
2018-07-31T07:24:58.115Z,26.20
2018-07-31T07:27:26.516Z,26.30
2018-07-31T07:32:22.897Z,26.50
2018-07-31T07:34:51.452Z,26.50
2018-07-31T07:44:44.004Z,26.90
2018-07-31T07:47:12.619Z,27.00
2018-07-31T07:49:41.780Z,27.20
2018-07-31T07:52:10.118Z,27.30
2018-07-31T07:57:06.899Z,27.40
2018-07-31T07:59:35.575Z,27.50
2018-07-31T08:02:03.930Z,27.60
2018-07-31T08:04:32.304Z,27.70
2018-07-31T08:07:00.644Z,27.80
2018-07-31T08:09:29.020Z,27.90
2018-07-31T08:11:57.401Z,28.00
2018-07-31T08:14:25.753Z,28.00
2018-07-31T08:16:54.104Z,28.00
2018-07-31T08:19:22.443Z,28.00
2018-07-31T08:21:50.780Z,28.00
2018-07-31T08:26:47.175Z,27.90
2018-07-31T08:29:15.548Z,27.90
2018-07-31T08:31:43.896Z,27.90
2018-07-31T08:34:12.336Z,28.00
2018-07-31T08:36:40.652Z,27.90
2018-07-31T08:39:09.968Z,27.90
2018-07-31T08:41:38.292Z,27.80
2018-07-31T08:44:07.130Z,27.80
2018-07-31T08:46:35.451Z,27.80
2018-07-31T08:49:03.824Z,27.80
2018-07-31T08:51:32.149Z,27.70
2018-07-31T08:56:28.579Z,27.70
2018-07-31T08:58:56.940Z,27.70
2018-07-31T09:01:25.279Z,27.80
2018-07-31T09:03:53.892Z,27.90
2018-07-31T09:06:22.268Z,28.20
2018-07-31T09:08:50.655Z,28.30
2018-07-31T09:11:18.959Z,28.30
2018-07-31T09:13:47.287Z,28.40
2018-07-31T09:16:15.623Z,28.60
2018-07-31T09:18:43.935Z,28.80
2018-07-31T09:21:12.315Z,29.00
2018-07-31T09:23:40.640Z,29.10
2018-07-31T09:26:09.013Z,29.20
2018-07-31T09:28:37.339Z,29.20
2018-07-31T09:31:11.184Z,29.30
2018-07-31T09:33:39.507Z,29.50
2018-07-31T09:36:07.879Z,29.50
2018-07-31T09:38:36.220Z,29.70
2018-07-31T09:41:04.589Z,29.90
2018-07-31T09:43:32.919Z,30.10
2018-07-31T09:46:01.267Z,30.30
2018-07-31T09:48:29.644Z,30.40
2018-07-31T09:50:57.976Z,30.60
2018-07-31T09:53:26.304Z,30.60
2018-07-31T09:55:54.652Z,30.80
2018-07-31T09:58:22.996Z,31.00
2018-07-31T10:00:56.760Z,31.10
2018-07-31T10:03:25.100Z,31.30
2018-07-31T10:08:22.459Z,31.70
2018-07-31T10:10:52.299Z,31.80
2018-07-31T10:13:20.692Z,31.80
2018-07-31T10:15:49.256Z,31.80
2018-07-31T10:18:17.693Z,31.80
2018-07-31T10:20:46.103Z,31.80
2018-07-31T10:23:14.430Z,31.70
2018-07-31T10:25:42.777Z,31.60
2018-07-31T10:28:11.100Z,31.60
2018-07-31T10:30:39.454Z,31.70
2018-07-31T10:33:07.796Z,31.90
2018-07-31T10:35:36.199Z,32.20
2018-07-31T10:38:04.588Z,32.50
2018-07-31T10:40:33.171Z,32.70
2018-07-31T10:43:01.490Z,32.90
2018-07-31T10:45:29.856Z,33.10
2018-07-31T10:47:58.197Z,33.30
2018-07-31T10:50:26.524Z,33.40
2018-07-31T10:52:54.870Z,33.50
2018-07-31T10:55:23.188Z,33.70
2018-07-31T10:57:51.535Z,33.90
2018-07-31T11:00:19.881Z,34.10
2018-07-31T11:05:16.314Z,34.40
2018-07-31T11:07:44.656Z,34.70
2018-07-31T11:10:12.984Z,34.80
2018-07-31T11:17:37.451Z,35.10
2018-07-31T11:20:05.976Z,35.10
2018-07-31T11:22:34.357Z,35.10
2018-07-31T11:25:02.671Z,35.10
2018-07-31T11:27:31.043Z,35.00
2018-07-31T11:29:59.347Z,35.10
2018-07-31T11:32:27.688Z,35.40
2018-07-31T11:37:24.124Z,35.40
2018-07-31T11:39:52.444Z,35.40
2018-07-31T11:42:20.812Z,35.40
2018-07-31T11:44:49.129Z,35.50
2018-07-31T11:47:17.467Z,35.70
2018-07-31T11:49:45.844Z,35.80
2018-07-31T11:52:14.184Z,35.90
2018-07-31T11:54:42.515Z,36.10
2018-07-31T11:57:10.861Z,36.20
2018-07-31T12:02:07.560Z,36.40
2018-07-31T12:04:35.887Z,36.50
2018-07-31T12:07:04.215Z,36.60
2018-07-31T12:09:32.552Z,36.80
2018-07-31T12:14:28.989Z,37.20
2018-07-31T12:16:57.331Z,37.30
2018-07-31T12:19:25.701Z,37.30
2018-07-31T12:21:54.081Z,37.00
2018-07-31T12:24:22.431Z,37.00
2018-07-31T12:29:18.864Z,37.20
2018-07-31T12:31:47.187Z,37.00
2018-07-31T12:34:15.543Z,36.80
2018-07-31T12:36:45.834Z,36.90
2018-07-31T12:39:14.304Z,37.00
2018-07-31T12:41:42.676Z,37.10
2018-07-31T12:44:11.048Z,37.20
2018-07-31T12:46:39.367Z,37.40
2018-07-31T12:49:07.751Z,37.40
2018-07-31T12:51:36.340Z,37.60
2018-07-31T12:54:04.743Z,37.40
2018-07-31T12:56:33.099Z,37.40
2018-07-31T12:59:01.455Z,37.40
2018-07-31T13:01:29.787Z,37.40
2018-07-31T13:03:58.137Z,37.70
2018-07-31T13:06:26.463Z,37.80
2018-07-31T13:08:54.816Z,37.80
2018-07-31T13:11:23.152Z,37.60
2018-07-31T13:13:51.508Z,37.40
2018-07-31T13:16:19.831Z,37.30
2018-07-31T13:21:16.276Z,37.40
2018-07-31T13:23:44.619Z,37.50
2018-07-31T13:26:12.923Z,37.70
2018-07-31T13:28:41.282Z,37.60
2018-07-31T13:31:09.602Z,37.20
2018-07-31T13:36:06.071Z,36.60
2018-07-31T13:38:34.384Z,36.50
2018-07-31T13:41:02.726Z,36.60
2018-07-31T13:43:31.111Z,36.60
2018-07-31T13:45:59.420Z,36.60
2018-07-31T13:48:27.788Z,36.80
2018-07-31T13:50:56.128Z,37.20
2018-07-31T13:53:24.448Z,37.40
2018-07-31T13:55:52.798Z,37.60
2018-07-31T13:58:21.130Z,37.90
2018-07-31T14:00:49.491Z,38.20
2018-07-31T14:03:17.815Z,38.10
2018-07-31T14:05:46.155Z,38.10
2018-07-31T14:08:14.463Z,37.90
2018-07-31T14:10:42.816Z,37.90
2018-07-31T14:13:11.132Z,38.10
2018-07-31T14:20:35.636Z,38.10
2018-07-31T14:23:03.964Z,38.10
2018-07-31T14:25:32.307Z,38.10
2018-07-31T14:28:00.619Z,37.90
2018-07-31T14:30:28.958Z,37.70
2018-07-31T14:32:57.268Z,37.50
2018-07-31T14:35:25.619Z,37.60
2018-07-31T14:37:53.946Z,37.90
2018-07-31T14:40:22.288Z,38.10
2018-07-31T14:42:50.655Z,38.10
2018-07-31T14:45:19.004Z,38.00
2018-07-31T14:47:47.316Z,37.70
2018-07-31T14:50:15.655Z,37.50
2018-07-31T14:52:43.975Z,37.10
2018-07-31T14:55:12.346Z,36.90
2018-07-31T14:57:40.673Z,37.10
2018-07-31T15:00:09.217Z,37.30
2018-07-31T15:02:37.539Z,37.40
2018-07-31T15:05:06.199Z,37.50
2018-07-31T15:07:34.511Z,37.50
2018-07-31T15:10:02.828Z,37.60
2018-07-31T15:12:31.164Z,37.80
2018-07-31T15:14:59.483Z,38.00
2018-07-31T15:17:27.815Z,38.00
2018-07-31T15:19:56.133Z,38.20
2018-07-31T15:22:24.511Z,38.30
2018-07-31T15:24:53.136Z,38.40
2018-07-31T15:27:21.481Z,38.70
2018-07-31T15:29:49.820Z,38.90
2018-07-31T15:32:18.172Z,38.90
2018-07-31T15:34:46.501Z,39.10
2018-07-31T15:37:14.856Z,39.10
2018-07-31T15:39:43.204Z,39.00
2018-07-31T15:42:11.588Z,39.10
2018-07-31T15:44:39.920Z,39.10
2018-07-31T15:47:08.295Z,39.10
2018-07-31T15:49:36.663Z,39.30
2018-07-31T15:52:05.029Z,39.20
2018-07-31T15:54:33.367Z,39.20
2018-07-31T15:57:01.733Z,39.00
2018-07-31T15:59:30.323Z,38.80
2018-07-31T16:01:58.662Z,38.80
2018-07-31T16:04:26.987Z,38.80
2018-07-31T16:06:55.355Z,38.80
2018-07-31T16:09:23.720Z,39.00
2018-07-31T16:11:52.088Z,39.20
2018-07-31T16:14:20.423Z,39.70
2018-07-31T16:16:48.807Z,39.90
2018-07-31T16:19:17.137Z,39.80
2018-07-31T16:21:45.517Z,39.20
2018-07-31T16:24:13.883Z,38.60
2018-07-31T16:26:42.229Z,38.10
2018-07-31T16:29:10.556Z,37.70
2018-07-31T16:31:38.910Z,37.40
2018-07-31T16:34:07.273Z,37.30
2018-07-31T16:36:35.595Z,37.40
2018-07-31T16:39:05.723Z,37.50
2018-07-31T16:41:34.077Z,37.70
2018-07-31T16:44:02.417Z,37.90
2018-07-31T16:46:31.001Z,38.10
2018-07-31T16:48:59.347Z,38.10
2018-07-31T16:51:27.771Z,37.80
2018-07-31T16:53:56.053Z,37.50
2018-07-31T16:56:24.380Z,37.30
2018-07-31T16:58:52.691Z,37.20
2018-07-31T17:01:21.015Z,37.00
2018-07-31T17:03:49.374Z,37.00
2018-07-31T17:06:17.720Z,36.80
2018-07-31T17:11:14.140Z,36.20
2018-07-31T17:13:42.508Z,36.00
2018-07-31T17:16:10.859Z,35.90
2018-07-31T17:18:39.195Z,35.90
2018-07-31T17:23:35.635Z,36.20
2018-07-31T17:26:03.985Z,36.10
2018-07-31T17:28:32.351Z,36.20
2018-07-31T17:31:00.682Z,36.20
2018-07-31T17:33:29.032Z,36.20
2018-07-31T17:35:57.361Z,36.10
2018-07-31T17:38:25.716Z,36.10
2018-07-31T17:40:54.060Z,36.40
2018-07-31T17:43:22.420Z,36.50
2018-07-31T17:45:50.775Z,36.50
2018-07-31T17:48:19.128Z,36.30
2018-07-31T17:50:47.464Z,36.30
2018-07-31T17:53:15.840Z,36.30
2018-07-31T17:55:44.187Z,36.20
2018-07-31T18:05:37.014Z,35.80
2018-07-31T18:08:05.420Z,35.50
2018-07-31T18:10:34.131Z,35.20
2018-07-31T18:13:02.507Z,34.90
2018-07-31T18:15:30.969Z,34.40
2018-07-31T18:17:59.348Z,34.00
2018-07-31T18:20:27.704Z,33.80
2018-07-31T18:22:56.052Z,33.50
2018-07-31T18:27:52.523Z,33.20
2018-07-31T18:30:20.879Z,33.00
2018-07-31T18:32:49.219Z,32.80
2018-07-31T18:35:17.595Z,32.60
2018-07-31T18:37:45.934Z,32.30
2018-07-31T18:40:14.256Z,32.00
2018-07-31T18:42:42.632Z,31.90
2018-07-31T18:45:10.959Z,31.70
2018-07-31T18:50:07.423Z,31.30
2018-07-31T18:52:35.758Z,31.00
2018-07-31T18:55:04.105Z,30.90
2018-07-31T18:57:32.452Z,30.60
2018-07-31T19:00:00.827Z,30.40
2018-07-31T19:07:25.300Z,30.00
2018-07-31T19:09:53.635Z,29.90
2018-07-31T19:12:21.964Z,29.80
2018-07-31T19:17:18.359Z,29.70
2018-07-31T19:19:46.737Z,29.70
2018-07-31T19:24:43.203Z,29.50
2018-07-31T19:27:12.380Z,29.40
2018-07-31T19:32:08.775Z,29.20
2018-07-31T19:34:37.127Z,29.20
2018-07-31T19:37:05.520Z,29.10
2018-07-31T19:39:33.864Z,29.10
2018-07-31T19:42:02.250Z,29.00
2018-07-31T19:44:30.616Z,28.90
2018-07-31T19:46:58.937Z,28.80
2018-07-31T19:49:27.369Z,28.70
2018-07-31T19:54:23.723Z,28.50
2018-07-31T19:56:52.089Z,28.50
2018-07-31T19:59:20.431Z,28.40
2018-07-31T20:01:48.761Z,28.30
2018-07-31T20:04:17.115Z,28.20
2018-07-31T20:06:45.449Z,28.20
2018-07-31T20:09:19.188Z,28.20
2018-07-31T20:11:47.512Z,28.10
2018-07-31T20:14:15.852Z,28.10
2018-07-31T20:16:44.179Z,28.00
2018-07-31T20:21:40.610Z,27.90
2018-07-31T20:24:08.967Z,27.90
2018-07-31T20:26:37.292Z,27.80
2018-07-31T20:29:05.676Z,27.70
2018-07-31T20:31:34.029Z,27.60
2018-07-31T20:34:02.465Z,27.50
2018-07-31T20:36:30.848Z,27.50
2018-07-31T20:38:59.232Z,27.50
2018-07-31T20:41:27.662Z,27.50
2018-07-31T20:43:55.948Z,27.40
2018-07-31T20:48:52.383Z,27.30
2018-07-31T20:51:20.730Z,27.20
2018-07-31T20:53:49.094Z,27.10
2018-07-31T20:56:17.467Z,27.10
2018-07-31T20:58:45.801Z,27.00
2018-07-31T21:01:14.717Z,27.00
2018-07-31T21:03:43.054Z,27.00
2018-07-31T21:06:11.435Z,27.00
2018-07-31T21:08:39.901Z,27.00
2018-07-31T21:11:08.544Z,26.90
2018-07-31T21:13:36.950Z,26.90
2018-07-31T21:16:05.477Z,26.80
2018-07-31T21:18:34.046Z,26.70
2018-07-31T21:21:02.386Z,26.70
2018-07-31T21:23:30.715Z,26.60
2018-07-31T21:25:59.208Z,26.60
2018-07-31T21:28:28.006Z,26.60
2018-07-31T21:30:56.481Z,26.60
2018-07-31T21:33:24.974Z,26.50
2018-07-31T21:38:21.789Z,26.50
2018-07-31T21:40:50.530Z,26.50
2018-07-31T21:45:47.501Z,26.40
2018-07-31T21:48:15.906Z,26.20
2018-07-31T21:50:44.320Z,26.10
2018-07-31T21:53:12.708Z,26.10
2018-07-31T21:55:41.124Z,26.10
2018-07-31T21:58:09.493Z,26.00
2018-07-31T22:00:43.201Z,25.90
2018-07-31T22:03:11.580Z,25.80
2018-07-31T22:05:40.056Z,25.80
2018-07-31T22:10:36.464Z,25.70
2018-07-31T22:13:04.769Z,25.70
2018-07-31T22:15:33.107Z,25.60
2018-07-31T22:18:01.444Z,25.60
2018-07-31T22:22:57.884Z,25.70
2018-07-31T22:25:26.228Z,25.70
2018-07-31T22:27:54.544Z,25.70
2018-07-31T22:30:22.905Z,25.60
2018-07-31T22:32:51.220Z,25.60
2018-07-31T22:35:19.547Z,25.60
2018-07-31T22:37:47.884Z,25.50
2018-07-31T22:40:16.227Z,25.40
2018-07-31T22:42:44.579Z,25.40
2018-07-31T22:45:12.895Z,25.40
2018-07-31T22:50:09.336Z,25.30
2018-07-31T22:52:37.676Z,25.30
2018-07-31T22:55:06.068Z,25.30
2018-07-31T22:57:34.496Z,25.20
2018-07-31T23:02:30.892Z,25.10
2018-07-31T23:04:59.208Z,25.00
2018-07-31T23:07:27.660Z,25.00
2018-07-31T23:09:57.109Z,24.90
2018-07-31T23:12:26.120Z,24.80
2018-07-31T23:14:54.458Z,24.80
2018-07-31T23:17:22.815Z,24.70
2018-07-31T23:19:51.131Z,24.60
2018-07-31T23:24:53.279Z,24.40
2018-07-31T23:27:21.644Z,24.30
2018-07-31T23:29:50.992Z,24.10
2018-07-31T23:32:19.428Z,24.00
2018-07-31T23:34:47.856Z,24.00
2018-07-31T23:37:16.261Z,24.00
2018-07-31T23:39:44.653Z,23.90
2018-07-31T23:42:13.063Z,23.90
2018-07-31T23:44:41.440Z,23.90
2018-07-31T23:47:09.906Z,23.90
2018-07-31T23:49:38.276Z,23.90
2018-07-31T23:52:06.777Z,23.90
2018-07-31T23:54:35.169Z,23.80
2018-07-31T23:57:03.596Z,23.80
2018-07-31T23:59:32.006Z,23.80
